Time;durP1;ratioP1;P1;durP2;ratioP2;P2;SDS_P1;SDS_P2;PMS_P1;PMS_P2;Temp;Humidity;BMP_temperature;BMP_pressure;BME280_temperature;BME280_humidity;BME280_pressure;Samples;Min_cycle;Max_cycle;Signal;HPM_P1;HPM_P2
2021/06/26 00:00:53;;;;;;;5.20;4.90;;;25.90;74.60;;;;;;4995110;28;20451;-90
2021/06/26 00:03:20;;;;;;;5.13;4.83;;;25.90;74.70;;;;;;4995299;28;20447;-89
2021/06/26 00:05:47;;;;;;;4.60;4.30;;;25.90;74.60;;;;;;4995215;28;20446;-90
2021/06/26 00:08:14;;;;;;;4.90;4.60;;;25.90;74.70;;;;;;4994924;28;21066;-90
2021/06/26 00:10:41;;;;;;;5.00;4.70;;;25.90;74.60;;;;;;4995157;28;20467;-89
2021/06/26 00:13:08;;;;;;;5.27;4.77;;;25.90;74.70;;;;;;4994896;28;20448;-89
2021/06/26 00:15:36;;;;;;;4.80;4.47;;;25.90;74.70;;;;;;4994701;28;20509;-89
2021/06/26 00:18:04;;;;;;;4.70;4.40;;;25.90;74.70;;;;;;4994873;28;20448;-90
2021/06/26 00:20:31;;;;;;;4.80;4.30;;;25.90;74.70;;;;;;4994745;28;20855;-90
2021/06/26 00:22:57;;;;;;;4.80;4.50;;;25.90;74.70;;;;;;4994573;28;20461;-89
2021/06/26 00:25:25;;;;;;;4.53;4.23;;;25.90;74.70;;;;;;4994747;28;20468;-88
2021/06/26 00:27:52;;;;;;;5.37;4.97;;;25.90;74.70;;;;;;4994777;28;20458;-90
2021/06/26 00:30:20;;;;;;;5.60;5.20;;;25.90;74.70;;;;;;4994856;28;20451;-88
2021/06/26 00:32:48;;;;;;;5.50;5.00;;;25.90;74.70;;;;;;4994479;28;20455;-89
2021/06/26 00:35:15;;;;;;;5.73;5.33;;;25.90;74.80;;;;;;4994414;28;20493;-89
2021/06/26 00:37:43;;;;;;;5.00;4.70;;;25.90;74.70;;;;;;4994723;28;20465;-90
2021/06/26 00:40:12;;;;;;;6.10;5.70;;;25.90;74.80;;;;;;4994491;28;20447;-90
2021/06/26 00:42:41;;;;;;;5.40;5.00;;;25.90;74.80;;;;;;4994163;28;20533;-90
2021/06/26 00:45:09;;;;;;;5.07;4.77;;;25.90;74.80;;;;;;4994127;28;20446;-88
2021/06/26 00:47:36;;;;;;;6.13;5.63;;;25.90;74.80;;;;;;4994021;28;20523;-89
2021/06/26 00:50:07;;;;;;;6.03;5.57;;;25.90;74.80;;;;;;4993676;28;20447;-89
2021/06/26 00:52:33;;;;;;;5.83;5.43;;;25.90;74.80;;;;;;4993985;28;20455;-90
2021/06/26 00:55:00;;;;;;;6.00;5.60;;;25.90;74.80;;;;;;4993954;28;20504;-89
2021/06/26 00:57:27;;;;;;;6.00;5.60;;;25.90;74.80;;;;;;4993799;28;20509;-89
2021/06/26 00:59:54;;;;;;;6.00;5.47;;;25.90;74.80;;;;;;4993726;28;20447;-89
2021/06/26 01:02:21;;;;;;;6.20;5.80;;;25.80;74.70;;;;;;4993732;28;20447;-89
2021/06/26 01:04:48;;;;;;;5.77;5.37;;;25.90;74.80;;;;;;4993810;28;20531;-89
2021/06/26 01:07:16;;;;;;;6.57;6.17;;;25.80;74.70;;;;;;4993792;28;20447;-89
2021/06/26 01:09:43;;;;;;;6.37;5.97;;;25.80;74.70;;;;;;4993886;28;20466;-90
2021/06/26 01:12:10;;;;;;;5.97;5.57;;;25.80;74.70;;;;;;4993535;28;20458;-89
2021/06/26 01:14:37;;;;;;;6.43;6.03;;;25.80;74.70;;;;;;4993463;28;20493;-89
2021/06/26 01:17:08;;;;;;;5.60;5.20;;;25.80;74.70;;;;;;4993490;28;20448;-90
2021/06/26 01:19:36;;;;;;;5.90;5.53;;;25.80;74.80;;;;;;4993478;28;20543;-89
2021/06/26 01:22:05;;;;;;;5.77;5.37;;;25.90;74.80;;;;;;4993540;28;20458;-90
2021/06/26 01:24:34;;;;;;;5.10;4.70;;;25.80;74.70;;;;;;4993690;28;20456;-89
2021/06/26 01:27:01;;;;;;;5.53;5.13;;;25.80;74.70;;;;;;4994009;28;20450;-90
2021/06/26 01:29:29;;;;;;;5.20;4.80;;;25.80;74.70;;;;;;4993774;28;20455;-89
2021/06/26 01:31:56;;;;;;;5.33;5.03;;;25.90;74.80;;;;;;4993778;28;20546;-89
2021/06/26 01:34:23;;;;;;;5.33;5.00;;;25.80;74.70;;;;;;4993777;28;20563;-89
2021/06/26 01:36:51;;;;;;;5.10;4.80;;;25.80;74.70;;;;;;4993766;28;20454;-90
2021/06/26 01:39:18;;;;;;;5.07;4.70;;;25.80;74.70;;;;;;4994016;28;20440;-89
2021/06/26 01:41:46;;;;;;;5.10;4.70;;;25.80;74.70;;;;;;4993714;28;20447;-89
2021/06/26 01:44:14;;;;;;;5.10;4.80;;;25.80;74.70;;;;;;4993837;28;21233;-88
2021/06/26 01:46:41;;;;;;;4.87;4.57;;;25.80;74.70;;;;;;4993515;28;20487;-88
2021/06/26 01:49:10;;;;;;;4.77;4.40;;;25.80;75.60;;;;;;4993534;28;20444;-89
2021/06/26 01:51:38;;;;;;;4.93;4.63;;;25.90;74.80;;;;;;4993811;28;20444;-89
2021/06/26 01:54:05;;;;;;;5.20;4.87;;;25.80;74.70;;;;;;4994117;28;20443;-89
2021/06/26 01:56:32;;;;;;;4.17;3.97;;;25.80;74.70;;;;;;4997380;28;20459;-89
2021/06/26 01:59:01;;;;;;;4.87;4.47;;;25.80;74.70;;;;;;4997389;28;20450;-89
2021/06/26 02:01:27;;;;;;;5.17;4.77;;;25.80;74.70;;;;;;4997522;28;20470;-89
2021/06/26 02:03:54;;;;;;;5.57;5.20;;;25.80;74.70;;;;;;4997568;28;20446;-89
2021/06/26 02:06:21;;;;;;;5.20;4.80;;;25.80;74.70;;;;;;4997308;28;20453;-89
2021/06/26 02:08:48;;;;;;;4.50;4.20;;;25.80;74.70;;;;;;4997211;28;20436;-89
2021/06/26 02:11:15;;;;;;;5.00;4.70;;;25.80;74.70;;;;;;4997209;28;20443;-89
2021/06/26 02:13:42;;;;;;;5.80;5.40;;;25.80;75.60;;;;;;4997102;28;20538;-89
2021/06/26 02:16:10;;;;;;;4.83;4.50;;;25.80;74.70;;;;;;4996862;28;20486;-90
2021/06/26 02:18:37;;;;;;;5.50;5.03;;;25.80;74.70;;;;;;4997082;28;20447;-89
2021/06/26 02:21:05;;;;;;;4.50;4.20;;;25.80;74.70;;;;;;4996909;28;20941;-89
2021/06/26 02:23:32;;;;;;;5.00;4.67;;;25.80;74.80;;;;;;4996976;28;20495;-89
2021/06/26 02:25:59;;;;;;;4.40;4.10;;;25.80;74.80;;;;;;4997359;28;20558;-89
2021/06/26 02:28:26;;;;;;;5.40;5.10;;;25.80;74.70;;;;;;4996778;28;20958;-89
2021/06/26 02:30:53;;;;;;;4.97;4.67;;;25.80;74.70;;;;;;4996872;28;20450;-89
2021/06/26 02:33:21;;;;;;;5.20;4.90;;;25.80;74.80;;;;;;4997077;28;20461;-89
2021/06/26 02:35:48;;;;;;;4.27;4.00;;;25.80;74.70;;;;;;4996958;28;20589;-89
2021/06/26 02:38:15;;;;;;;4.57;4.27;;;25.80;74.70;;;;;;4996672;28;20538;-89
2021/06/26 02:40:41;;;;;;;4.73;4.43;;;25.80;74.70;;;;;;4996774;28;20785;-89
2021/06/26 02:43:08;;;;;;;4.80;4.50;;;25.80;74.70;;;;;;4996602;28;20546;-89
2021/06/26 02:45:35;;;;;;;5.73;5.33;;;25.80;74.80;;;;;;4996627;28;20506;-89
2021/06/26 02:48:02;;;;;;;4.60;4.30;;;25.80;74.80;;;;;;4996402;28;20981;-90
2021/06/26 02:50:30;;;;;;;5.17;4.87;;;25.80;74.80;;;;;;4996460;28;20448;-89
2021/06/26 02:52:57;;;;;;;4.37;4.10;;;25.80;74.70;;;;;;4996500;28;20455;-90
2021/06/26 02:55:24;;;;;;;4.80;4.50;;;25.80;74.80;;;;;;4996438;28;20496;-88
2021/06/26 02:57:51;;;;;;;4.80;4.50;;;25.80;74.70;;;;;;4996204;28;20821;-89
2021/06/26 03:00:18;;;;;;;5.50;5.17;;;25.80;74.70;;;;;;4996133;28;20444;-88
2021/06/26 03:02:45;;;;;;;4.80;4.50;;;25.80;74.80;;;;;;4996495;28;20448;-90
2021/06/26 03:05:12;;;;;;;4.30;4.10;;;25.80;74.70;;;;;;4995732;28;20479;-90
2021/06/26 03:07:40;;;;;;;4.93;4.63;;;25.80;74.80;;;;;;4995491;28;20451;-88
2021/06/26 03:10:08;;;;;;;4.77;4.37;;;25.80;74.80;;;;;;4996358;28;20989;-88
2021/06/26 03:12:35;;;;;;;4.70;4.40;;;25.80;74.80;;;;;;4996221;28;20543;-89
2021/06/26 03:15:02;;;;;;;5.47;5.17;;;25.80;74.80;;;;;;4995989;28;20491;-89
2021/06/26 03:17:28;;;;;;;5.33;4.93;;;25.80;74.80;;;;;;4995911;28;20456;-90
2021/06/26 03:19:55;;;;;;;5.10;4.77;;;25.80;74.70;;;;;;4995967;28;20534;-89
2021/06/26 03:22:22;;;;;;;4.70;4.40;;;25.80;74.70;;;;;;4996106;28;20461;-90
2021/06/26 03:24:50;;;;;;;5.07;4.77;;;25.80;74.80;;;;;;4995921;28;20473;-90
2021/06/26 03:27:17;;;;;;;5.13;4.83;;;25.80;74.80;;;;;;4995749;28;20893;-89
2021/06/26 03:29:44;;;;;;;5.27;4.97;;;25.80;74.80;;;;;;4995948;28;20802;-89
2021/06/26 03:32:11;;;;;;;4.90;4.50;;;25.70;74.70;;;;;;4995739;28;20444;-89
2021/06/26 03:34:38;;;;;;;4.80;4.50;;;25.80;74.80;;;;;;4995573;28;20452;-90
2021/06/26 03:37:05;;;;;;;5.47;5.07;;;25.80;74.80;;;;;;4995597;28;20461;-89
2021/06/26 03:39:32;;;;;;;5.30;4.90;;;25.70;74.70;;;;;;4995904;28;20921;-89
2021/06/26 03:42:00;;;;;;;5.60;5.20;;;25.80;74.80;;;;;;4995476;28;20530;-90
2021/06/26 03:44:28;;;;;;;4.90;4.57;;;25.80;74.80;;;;;;4995430;28;20935;-90
2021/06/26 03:46:55;;;;;;;5.27;4.87;;;25.80;75.70;;;;;;4995166;28;20489;-89
2021/06/26 03:49:21;;;;;;;5.43;5.13;;;25.70;74.70;;;;;;4995541;28;20447;-89
2021/06/26 03:51:48;;;;;;;4.90;4.60;;;25.70;74.70;;;;;;4995358;28;20538;-89
2021/06/26 03:54:15;;;;;;;5.10;4.80;;;25.70;74.70;;;;;;4995415;28;20539;-89
2021/06/26 03:56:42;;;;;;;4.70;4.40;;;25.80;74.80;;;;;;4995411;28;20580;-89
2021/06/26 03:59:10;;;;;;;4.53;4.23;;;25.70;74.70;;;;;;4995008;28;20483;-87
2021/06/26 04:01:37;;;;;;;5.10;4.80;;;25.70;74.70;;;;;;4995137;28;20459;-87
2021/06/26 04:04:04;;;;;;;6.37;5.87;;;25.70;74.40;;;;;;4995083;28;20451;-88
2021/06/26 04:06:31;;;;;;;9.57;8.67;;;25.70;74.00;;;;;;4994915;28;20454;-87
2021/06/26 04:08:58;;;;;;;9.60;8.80;;;25.70;73.40;;;;;;4994871;28;20961;-88
2021/06/26 04:11:24;;;;;;;10.30;9.40;;;25.70;73.50;;;;;;4994918;28;20483;-87
2021/06/26 04:13:51;;;;;;;10.50;9.50;;;25.70;73.50;;;;;;4995082;28;20527;-88
2021/06/26 04:16:19;;;;;;;12.97;10.43;;;25.60;73.30;;;;;;4994768;28;20483;-87
2021/06/26 04:18:46;;;;;;;10.33;9.40;;;25.60;73.40;;;;;;4994358;28;20447;-87
2021/06/26 04:21:13;;;;;;;9.30;8.47;;;25.50;73.50;;;;;;4994995;28;20456;-88
2021/06/26 04:23:40;;;;;;;10.57;9.57;;;25.50;73.80;;;;;;4994448;28;20444;-87
2021/06/26 04:26:06;;;;;;;10.80;9.30;;;25.50;74.00;;;;;;4994090;28;20565;-87
2021/06/26 04:28:33;;;;;;;10.63;9.20;;;25.50;74.10;;;;;;4993647;28;20444;-87
2021/06/26 04:31:00;;;;;;;10.00;9.13;;;25.50;74.20;;;;;;4994180;28;20533;-87
2021/06/26 04:33:29;;;;;;;10.60;9.63;;;25.50;74.20;;;;;;4994477;28;20543;-87
2021/06/26 04:35:56;;;;;;;10.87;9.97;;;25.50;74.20;;;;;;4994458;28;20991;-87
2021/06/26 04:38:22;;;;;;;10.87;9.97;;;25.50;74.30;;;;;;4994255;28;20452;-87
2021/06/26 04:40:51;;;;;;;10.33;8.87;;;25.40;74.20;;;;;;4994246;28;20969;-89
2021/06/26 04:43:18;;;;;;;11.43;10.40;;;25.40;75.30;;;;;;4994747;28;20447;-89
2021/06/26 04:45:45;;;;;;;11.73;10.73;;;25.40;74.60;;;;;;4994225;28;20478;-90
2021/06/26 04:48:12;;;;;;;12.40;11.20;;;25.40;74.70;;;;;;4994252;28;20451;-89
2021/06/26 04:50:41;;;;;;;11.73;10.63;;;25.40;74.90;;;;;;4994584;28;20443;-89
2021/06/26 04:53:08;;;;;;;12.07;10.90;;;25.40;75.10;;;;;;4994576;28;20806;-90
2021/06/26 04:55:35;;;;;;;12.50;11.20;;;25.40;75.00;;;;;;4994021;28;20990;-89
2021/06/26 04:58:02;;;;;;;12.43;10.90;;;25.30;74.90;;;;;;4994411;28;20444;-89
2021/06/26 05:00:28;;;;;;;16.57;11.03;;;25.40;75.20;;;;;;4994436;28;20473;-89
2021/06/26 05:02:55;;;;;;;12.60;11.40;;;25.30;76.30;;;;;;4994099;28;20443;-89
2021/06/26 05:05:22;;;;;;;11.40;10.50;;;25.30;75.80;;;;;;4994270;28;20880;-89
2021/06/26 05:07:50;;;;;;;13.33;12.03;;;25.30;75.90;;;;;;4994522;28;20444;-90
2021/06/26 05:10:17;;;;;;;12.50;11.23;;;25.30;76.40;;;;;;4993929;28;20943;-89
2021/06/26 05:12:44;;;;;;;12.77;11.60;;;25.20;76.00;;;;;;4994334;28;20448;-89
2021/06/26 05:15:12;;;;;;;13.93;12.70;;;25.30;76.30;;;;;;4994017;28;20444;-90
2021/06/26 05:17:39;;;;;;;15.67;14.20;;;25.20;76.40;;;;;;4993986;28;20448;-89
2021/06/26 05:20:07;;;;;;;14.80;12.10;;;25.40;76.70;;;;;;4993932;28;20539;-89
2021/06/26 05:22:34;;;;;;;14.60;13.13;;;25.30;76.70;;;;;;4993602;28;20458;-89
2021/06/26 05:25:02;;;;;;;14.20;13.00;;;25.20;76.60;;;;;;4993864;28;20474;-89
2021/06/26 05:27:29;;;;;;;16.97;14.57;;;25.20;76.60;;;;;;4994151;28;20451;-89
2021/06/26 05:29:56;;;;;;;15.00;12.87;;;25.30;76.70;;;;;;4995791;28;20456;-89
2021/06/26 05:32:23;;;;;;;14.57;13.17;;;25.30;76.90;;;;;;4998174;28;20823;-89
2021/06/26 05:34:50;;;;;;;14.07;12.80;;;25.30;76.90;;;;;;4998145;28;20451;-89
2021/06/26 05:37:16;;;;;;;13.87;12.47;;;25.30;77.00;;;;;;4997695;28;20494;-90
2021/06/26 05:39:43;;;;;;;14.20;12.90;;;25.30;77.10;;;;;;4997759;28;20457;-90
2021/06/26 05:42:12;;;;;;;15.67;14.17;;;25.30;77.00;;;;;;4997714;28;20534;-89
2021/06/26 05:44:39;;;;;;;15.57;14.07;;;25.30;76.90;;;;;;4997879;28;20471;-90
2021/06/26 05:47:06;;;;;;;16.00;14.50;;;25.30;77.10;;;;;;4984820;28;20470;-90
2021/06/26 05:49:32;;;;;;;17.63;15.77;;;25.20;77.10;;;;;;4978164;28;20448;-90
2021/06/26 05:51:59;;;;;;;16.87;15.17;;;25.20;77.30;;;;;;4978044;28;20475;-89
2021/06/26 05:54:26;;;;;;;16.53;14.90;;;25.20;77.30;;;;;;4978135;28;20506;-89
2021/06/26 05:56:53;;;;;;;18.20;15.47;;;25.30;77.40;;;;;;4977770;28;20495;-90
2021/06/26 05:59:21;;;;;;;18.57;16.83;;;25.20;77.60;;;;;;4977971;28;20458;-89
2021/06/26 06:01:48;;;;;;;15.40;14.10;;;25.20;77.60;;;;;;4978136;28;20470;-89
2021/06/26 06:04:15;;;;;;;16.20;13.67;;;25.20;77.60;;;;;;4977749;28;20451;-90
2021/06/26 06:06:42;;;;;;;16.30;14.70;;;25.20;77.70;;;;;;4978083;28;20455;-90
2021/06/26 06:09:09;;;;;;;15.70;14.20;;;25.20;77.80;;;;;;4977866;28;21139;-89
2021/06/26 06:11:36;;;;;;;15.30;13.83;;;25.30;77.90;;;;;;4977631;28;20958;-89
2021/06/26 06:14:03;;;;;;;16.13;14.63;;;25.30;78.10;;;;;;4977739;28;20450;-89
2021/06/26 06:16:32;;;;;;;19.57;15.87;;;25.20;78.10;;;;;;4977524;28;20610;-89
2021/06/26 06:18:58;;;;;;;17.33;15.70;;;25.30;78.50;;;;;;4977898;28;20542;-94
2021/06/26 06:21:25;;;;;;;19.60;17.80;;;25.30;78.90;;;;;;4978144;28;20474;-93
2021/06/26 06:23:52;;;;;;;20.10;17.97;;;25.30;79.00;;;;;;4978111;28;20879;-93
2021/06/26 06:26:19;;;;;;;19.00;17.00;;;25.30;78.80;;;;;;4978372;28;20476;-93
2021/06/26 06:28:46;;;;;;;19.80;18.00;;;25.30;78.60;;;;;;4978818;28;20451;-96
2021/06/26 06:31:13;;;;;;;20.40;18.40;;;25.30;78.60;;;;;;4978066;28;20450;-92
2021/06/26 06:33:41;;;;;;;21.20;19.10;;;25.30;78.50;;;;;;4977971;28;20448;-92
2021/06/26 06:36:08;;;;;;;18.37;16.60;;;25.30;78.50;;;;;;4979486;28;20487;-92
2021/06/26 06:38:35;;;;;;;17.40;15.80;;;25.30;78.50;;;;;;4997402;28;20462;-91
2021/06/26 06:41:02;;;;;;;17.60;15.80;;;25.30;78.50;;;;;;4997980;28;20452;-94
2021/06/26 06:43:29;;;;;;;16.30;14.73;;;25.40;78.50;;;;;;4997527;28;20444;-93
2021/06/26 06:45:56;;;;;;;15.53;14.10;;;25.40;78.20;;;;;;4997391;28;20577;-93
2021/06/26 06:48:23;;;;;;;15.43;13.80;;;25.40;78.00;;;;;;4997227;28;20543;-93
2021/06/26 06:50:51;;;;;;;14.20;12.80;;;25.40;78.10;;;;;;4997445;28;20459;-93
2021/06/26 06:53:18;;;;;;;12.20;11.10;;;25.40;77.90;;;;;;4997302;28;20550;-93
2021/06/26 06:55:50;;;;;;;14.70;13.17;;;25.50;77.90;;;;;;4997181;28;20497;-94
2021/06/26 06:58:17;;;;;;;11.13;10.13;;;25.50;77.80;;;;;;4997899;28;20439;-94
2021/06/26 07:00:44;;;;;;;12.50;11.27;;;25.50;77.60;;;;;;4997224;28;20450;-94
2021/06/26 07:03:11;;;;;;;13.87;12.57;;;25.50;77.50;;;;;;4997129;28;20451;-92
2021/06/26 07:05:38;;;;;;;13.43;12.23;;;25.50;77.40;;;;;;4997704;28;20453;-94
2021/06/26 07:08:06;;;;;;;12.07;10.97;;;25.50;77.20;;;;;;4997100;28;20448;-94
2021/06/26 07:10:34;;;;;;;12.60;11.50;;;25.50;77.10;;;;;;4996825;28;20526;-94
2021/06/26 07:13:01;;;;;;;13.00;10.43;;;25.50;77.20;;;;;;4996979;28;20444;-93
2021/06/26 07:15:27;;;;;;;11.50;10.60;;;25.50;77.10;;;;;;4996898;28;20462;-93
2021/06/26 07:17:54;;;;;;;15.67;13.50;;;25.50;77.00;;;;;;4996693;28;20493;-93
2021/06/26 07:20:21;;;;;;;12.70;11.60;;;25.50;76.90;;;;;;4996693;28;20927;-93
2021/06/26 07:22:49;;;;;;;11.63;10.63;;;25.50;76.70;;;;;;4996635;28;20469;-93
2021/06/26 07:25:17;;;;;;;11.47;10.47;;;25.50;76.80;;;;;;4996855;28;20479;-93
2021/06/26 07:27:44;;;;;;;12.77;11.57;;;25.50;76.70;;;;;;4996744;28;20522;-94
2021/06/26 07:30:12;;;;;;;14.07;12.67;;;25.50;76.50;;;;;;4996910;28;20796;-92
2021/06/26 07:32:39;;;;;;;13.03;11.17;;;25.50;75.90;;;;;;4996544;28;20803;-94
2021/06/26 07:35:07;;;;;;;11.63;10.63;;;25.50;75.40;;;;;;4996496;28;20462;-93
2021/06/26 07:37:34;;;;;;;10.10;9.40;;;25.50;75.50;;;;;;4996327;28;20492;-93
2021/06/26 07:40:01;;;;;;;9.80;8.97;;;25.50;75.80;;;;;;4997227;28;20451;-94
2021/06/26 07:42:29;;;;;;;10.90;9.20;;;25.50;76.00;;;;;;4996522;28;20579;-93
2021/06/26 07:44:56;;;;;;;8.50;7.80;;;25.50;76.90;;;;;;4997198;28;20445;-94
2021/06/26 07:47:22;;;;;;;9.60;8.80;;;25.60;76.10;;;;;;4995950;28;20929;-94
2021/06/26 07:49:49;;;;;;;9.10;8.40;;;25.50;76.00;;;;;;4995944;28;20452;-93
2021/06/26 07:52:19;;;;;;;9.30;8.00;;;25.50;76.00;;;;;;4995789;28;20486;-93
2021/06/26 07:54:46;;;;;;;8.67;7.97;;;25.50;75.90;;;;;;4997097;28;20469;-95
2021/06/26 07:57:13;;;;;;;9.40;8.60;;;25.50;76.00;;;;;;4995745;28;20557;-94
2021/06/26 07:59:41;;;;;;;8.27;7.67;;;25.60;76.00;;;;;;4996804;28;20534;-94
2021/06/26 08:02:11;;;;;;;8.10;7.40;;;25.60;76.00;;;;;;4998283;28;20529;-94
2021/06/26 08:04:37;;;;;;;7.70;7.20;;;25.60;75.90;;;;;;4997234;28;20461;-95
2021/06/26 08:07:05;;;;;;;6.33;5.83;;;25.60;75.90;;;;;;4995827;28;20537;-93
2021/06/26 08:09:31;;;;;;;9.73;8.17;;;25.60;75.90;;;;;;4995576;28;20544;-95
2021/06/26 08:11:58;;;;;;;8.63;7.93;;;25.60;75.90;;;;;;4995923;28;20450;-94
2021/06/26 08:14:25;;;;;;;8.00;7.37;;;25.60;75.80;;;;;;4996066;28;20558;-94
2021/06/26 08:16:53;;;;;;;8.23;7.63;;;25.60;75.80;;;;;;4995453;28;20480;-93
2021/06/26 08:19:21;;;;;;;7.30;6.80;;;25.60;75.70;;;;;;4995452;28;21057;-93
2021/06/26 08:21:48;;;;;;;7.90;7.40;;;25.60;75.70;;;;;;4995387;28;20453;-94
2021/06/26 08:24:15;;;;;;;6.30;5.80;;;25.60;75.70;;;;;;4996049;28;20486;-94
2021/06/26 08:26:57;;;;;;;8.33;7.60;;;25.60;75.70;;;;;;5005329;28;20455;-91
2021/06/26 08:29:33;;;;;;;7.40;6.83;;;25.60;75.60;;;;;;5011447;28;20471;-94
2021/06/26 08:32:02;;;;;;;7.87;7.17;;;25.60;75.50;;;;;;5007560;28;20446;-95
2021/06/26 08:34:31;;;;;;;7.27;6.67;;;25.60;75.60;;;;;;5010384;28;20476;-96
2021/06/26 08:36:58;;;;;;;7.77;7.00;;;25.60;75.70;;;;;;5004101;28;20581;-94
2021/06/26 08:39:25;;;;;;;7.50;6.90;;;25.60;75.60;;;;;;4996228;28;20538;-91
2021/06/26 08:41:52;;;;;;;6.70;6.20;;;25.60;75.70;;;;;;4995683;28;20602;-89
2021/06/26 08:44:39;;;;;;;7.07;6.57;;;25.60;75.70;;;;;;5014321;28;20431;-90
2021/06/26 08:47:16;;;;;;;7.40;6.70;;;25.60;75.70;;;;;;5017778;28;20458;-90
2021/06/26 08:49:48;;;;;;;7.60;6.97;;;25.60;75.60;;;;;;5016127;28;20442;-91
2021/06/26 08:52:29;;;;;;;7.83;7.07;;;25.60;75.60;;;;;;5015680;28;20502;-91
2021/06/26 08:55:07;;;;;;;7.37;6.77;;;25.70;75.60;;;;;;5007508;28;20468;-91
2021/06/26 08:57:40;;;;;;;7.10;6.60;;;25.60;75.50;;;;;;4992136;28;20541;-91
2021/06/26 09:00:23;;;;;;;7.20;6.70;;;25.60;75.50;;;;;;5014631;28;20447;-90
2021/06/26 09:05:50;;;;;;;7.27;6.57;;;25.70;75.60;;;;;;4993539;26;20476;-90
2021/06/26 09:08:22;;;;;;;7.10;6.60;;;25.60;75.50;;;;;;4996423;28;20529;-91
2021/06/26 09:10:52;;;;;;;6.30;5.77;;;25.60;75.50;;;;;;5032523;23;20494;-91
2021/06/26 09:13:45;;;;;;;6.40;6.00;;;25.60;75.50;;;;;;5021788;23;20483;-90
2021/06/26 09:16:23;;;;;;;6.70;6.30;;;25.70;75.50;;;;;;5022059;23;20514;-90
2021/06/26 09:19:16;;;;;;;6.57;6.17;;;25.60;75.50;;;;;;5023229;23;20521;-90
2021/06/26 09:27:52;;;;;;;7.17;5.63;;;25.70;75.50;;;;;;4974090;29;20433;-91
2021/06/26 09:36:24;;;;;;;6.63;6.13;;;25.60;75.50;;;;;;5035373;23;20478;-90
2021/06/26 09:39:12;;;;;;;7.13;6.63;;;25.60;75.50;;;;;;5010538;28;20901;-91
2021/06/26 09:42:09;;;;;;;6.60;6.00;;;25.70;75.60;;;;;;5027200;23;20482;-93
2021/06/26 09:45:02;;;;;;;6.50;6.00;;;25.70;76.40;;;;;;5032568;28;20541;-94
2021/06/26 09:47:37;;;;;;;5.70;5.20;;;25.70;75.60;;;;;;5033231;23;20527;-92
2021/06/26 09:50:38;;;;;;;6.43;6.00;;;25.70;75.50;;;;;;5013650;28;20478;-91
2021/06/26 09:53:12;;;;;;;6.30;5.90;;;25.70;75.60;;;;;;5014360;28;20416;-90
2021/06/26 09:58:17;;;;;;;6.03;5.63;;;25.70;75.50;;;;;;5038447;23;20496;-94
2021/06/26 10:00:51;;;;;;;6.83;6.33;;;25.70;75.50;;;;;;5021159;23;20285;-90
2021/06/26 10:03:37;;;;;;;6.27;5.87;;;25.70;75.50;;;;;;5014448;28;20468;-91
2021/06/26 10:06:16;;;;;;;6.20;5.80;;;25.70;75.40;;;;;;5008753;28;20490;-93
2021/06/26 10:12:06;;;;;;;6.40;5.80;;;25.70;75.40;;;;;;5015444;28;20470;-90
2021/06/26 10:14:35;;;;;;;5.33;5.03;;;25.70;75.40;;;;;;5013894;28;20470;-90
2021/06/26 10:17:30;;;;;;;6.10;5.40;;;25.70;75.50;;;;;;5013579;28;20529;-92
2021/06/26 10:20:02;;;;;;;5.60;5.20;;;25.70;75.40;;;;;;5016300;28;20439;-91
2021/06/26 10:22:35;;;;;;;6.33;5.73;;;25.70;75.40;;;;;;5016204;28;20858;-92
2021/06/26 10:28:12;;;;;;;6.27;5.87;;;25.70;75.40;;;;;;5023315;23;20487;-91
2021/06/26 10:30:41;;;;;;;5.70;5.30;;;25.70;75.40;;;;;;5016841;28;20474;-92
2021/06/26 10:33:28;;;;;;;5.77;5.37;;;25.70;75.40;;;;;;5071246;23;20498;-91
2021/06/26 10:36:30;;;;;;;5.47;5.17;;;25.70;76.20;;;;;;5016595;28;20874;-90
2021/06/26 10:39:25;;;;;;;5.20;4.83;;;25.70;75.30;;;;;;5022603;23;20529;-91
2021/06/26 10:42:15;;;;;;;5.97;5.60;;;25.70;75.30;;;;;;5015400;23;20506;-91
2021/06/26 10:45:03;;;;;;;6.00;5.60;;;25.70;75.30;;;;;;5026866;23;20547;-93
2021/06/26 10:47:37;;;;;;;6.07;5.67;;;25.70;75.30;;;;;;5015904;28;20457;-93
2021/06/26 10:50:32;;;;;;;5.93;5.53;;;25.70;75.40;;;;;;5015638;28;20442;-91
2021/06/26 10:53:04;;;;;;;5.73;5.33;;;25.70;75.30;;;;;;5015779;28;20489;-94
2021/06/26 10:55:34;;;;;;;5.60;5.30;;;25.70;75.30;;;;;;5016080;28;20451;-91
2021/06/26 10:58:03;;;;;;;5.00;4.70;;;25.70;75.30;;;;;;5016816;28;20487;-90
2021/06/26 11:03:07;;;;;;;4.63;4.33;;;25.70;75.20;;;;;;623762;23;20765;-89
2021/06/26 11:06:17;;;;;;;5.40;5.00;;;25.70;75.40;;;;;;5013809;28;20530;-91
2021/06/26 11:09:00;;;;;;;5.60;5.20;;;25.70;75.20;;;;;;5016203;28;20890;-96
2021/06/26 11:11:55;;;;;;;5.40;5.00;;;25.70;75.20;;;;;;5015500;28;20960;-94
2021/06/26 11:14:38;;;;;;;5.53;5.23;;;25.70;75.30;;;;;;5015275;28;20462;-91
2021/06/26 11:19:52;;;;;;;5.00;4.60;;;25.70;75.30;;;;;;5021427;23;20434;-90
2021/06/26 11:22:40;;;;;;;5.53;5.13;;;25.70;75.30;;;;;;5011245;23;20569;-95
2021/06/26 11:25:48;;;;;;;4.90;4.60;;;25.70;75.20;;;;;;5016965;28;20437;-89
2021/06/26 11:28:20;;;;;;;4.30;4.10;;;25.70;75.10;;;;;;5150456;23;20509;-90
2021/06/26 11:31:23;;;;;;;5.47;5.10;;;25.70;75.30;;;;;;5016585;28;20443;-94
2021/06/26 11:33:53;;;;;;;5.30;4.90;;;25.80;75.20;;;;;;5047001;23;20812;-92
2021/06/26 11:36:21;;;;;;;5.10;4.80;;;25.70;75.20;;;;;;5036282;28;20446;-90
2021/06/26 11:39:08;;;;;;;5.17;4.80;;;25.70;75.20;;;;;;5036224;28;20480;-91
2021/06/26 11:42:01;;;;;;;5.50;5.10;;;25.80;75.20;;;;;;5036536;28;20434;-94
2021/06/26 11:44:40;;;;;;;5.00;4.70;;;25.70;75.10;;;;;;5037607;28;20470;-91
2021/06/26 11:47:19;;;;;;;4.50;4.30;;;25.80;75.20;;;;;;5033437;23;20488;-92
2021/06/26 11:50:32;;;;;;;4.90;4.60;;;25.70;75.20;;;;;;5016935;28;20458;-92
2021/06/26 11:53:11;;;;;;;4.50;4.20;;;25.70;75.10;;;;;;5017244;28;20487;-94
2021/06/26 11:58:44;;;;;;;5.43;5.10;;;25.70;75.20;;;;;;5025832;23;20478;-91
2021/06/26 12:01:39;;;;;;;4.90;4.60;;;25.80;75.20;;;;;;5017394;28;20207;-91
2021/06/26 12:07:10;;;;;;;5.10;4.70;;;25.70;75.20;;;;;;5016593;28;20507;-91
2021/06/26 12:10:12;;;;;;;5.40;5.10;;;25.70;75.20;;;;;;5017561;28;20466;-94
2021/06/26 12:12:52;;;;;;;5.37;5.07;;;25.80;75.20;;;;;;5016573;28;20423;-92
2021/06/26 12:15:37;;;;;;;4.00;3.80;;;25.70;75.10;;;;;;5046593;23;20489;-92
2021/06/26 12:18:10;;;;;;;4.80;4.50;;;25.70;75.10;;;;;;5024587;23;20676;-90
2021/06/26 12:20:42;;;;;;;5.03;4.67;;;25.70;75.10;;;;;;5016981;28;20417;-93
2021/06/26 12:23:19;;;;;;;5.50;5.10;;;25.80;75.20;;;;;;5078288;23;20491;-92
2021/06/26 12:33:40;;;;;;;5.03;4.73;;;25.70;75.10;;;;;;1228272;23;21645;-92
2021/06/26 12:44:20;;;;;;;5.00;4.60;;;25.70;75.10;;;;;;2958615;23;20480;-91
2021/06/26 12:46:49;;;;;;;4.77;4.47;;;25.70;75.10;;;;;;5033232;28;20422;-91
2021/06/26 12:49:32;;;;;;;4.63;4.33;;;25.70;75.10;;;;;;5033541;28;20518;-92
2021/06/26 12:52:20;;;;;;;4.80;4.50;;;25.80;75.20;;;;;;5036328;28;20454;-92
2021/06/26 12:58:23;;;;;;;4.70;4.40;;;25.70;75.10;;;;;;4939139;29;20473;-91
2021/06/26 13:10:09;;;;;;;4.67;4.40;;;25.70;75.10;;;;;;5119076;23;20558;-92
2021/06/26 13:12:50;;;;;;;4.50;4.27;;;25.80;75.10;;;;;;5121319;23;20230;-92
2021/06/26 13:15:23;;;;;;;4.87;4.57;;;25.70;75.10;;;;;;5042140;23;20565;-90
2021/06/26 13:18:03;;;;;;;5.63;5.23;;;25.70;75.10;;;;;;5043724;23;20477;-89
2021/06/26 13:41:23;;;;;;;4.63;4.33;;;25.70;75.20;;;;;;5040373;23;21377;-91
2021/06/26 13:50:14;;;;;;;4.47;4.23;;;25.70;75.10;;;;;;5191356;23;20996;-91
2021/06/26 13:55:51;;;;;;;4.43;4.13;;;25.70;75.10;;;;;;5024715;23;20506;-91
2021/06/26 14:18:53;;;;;;;4.50;4.20;;;25.70;75.20;;;;;;3145994;23;20482;-91
2021/06/26 14:43:30;;;;;;;4.50;4.10;;;25.80;75.30;;;;;;5067112;23;20479;-93
2021/06/26 14:46:00;;;;;;;4.57;4.27;;;25.80;75.20;;;;;;5039185;28;20441;-91
2021/06/26 14:48:27;;;;;;;4.20;4.00;;;25.80;75.20;;;;;;5039936;28;20483;-92
2021/06/26 15:02:42;;;;;;;3.90;3.70;;;25.80;75.20;;;;;;4993638;28;20467;-90
2021/06/26 15:15:51;;;;;;;4.07;3.87;;;25.80;75.20;;;;;;5002979;23;20500;-89
2021/06/26 15:18:32;;;;;;;4.20;3.80;;;25.80;75.10;;;;;;5038591;23;20490;-91
2021/06/26 15:21:08;;;;;;;4.23;4.03;;;25.80;75.10;;;;;;5049910;23;20495;-90
2021/06/26 15:23:50;;;;;;;3.93;3.67;;;25.80;75.10;;;;;;5019527;28;20427;-90
2021/06/26 15:28:58;;;;;;;4.90;4.60;;;25.80;75.10;;;;;;1411739;23;20501;-90
2021/06/26 16:03:24;;;;;;;4.00;3.80;;;25.80;75.10;;;;;;5014798;28;20503;-90
2021/06/26 16:38:03;;;;;;;3.93;3.63;;;25.80;75.10;;;;;;5026648;23;20478;-90
2021/06/26 16:40:54;;;;;;;3.87;3.67;;;25.80;75.20;;;;;;5131810;23;20608;-90
2021/06/26 16:43:34;;;;;;;3.60;3.40;;;25.90;75.20;;;;;;5020013;23;20494;-90
2021/06/26 17:05:33;;;;;;;4.30;4.10;;;25.80;75.30;;;;;;6143388;22;1272397;-90